METAR Data
IDs: Format: Raw Decoded Include TAF

Data at: 0211 UTC 10 Dec 2022

K6S2 100155Z AUTO 16009G16KT 130V210 10SM -RA OVC033 09/08 A2950 RMK AO2 P0001
K6S2 100135Z AUTO 16009G23KT 130V200 9SM -RA OVC034 09/08 A2951 RMK AO2
K6S2 100115Z AUTO 15007G15KT 120V190 9SM -RA OVC034 08/08 A2952 RMK AO2
K6S2 100055Z AUTO 15011G22KT 110V180 6SM -RA BR OVC033 08/08 A2953 RMK AO2 P0005
K6S2 100035Z AUTO 15007G20KT 120V190 4SM -RA BR OVC034 08/08 A2955 RMK AO2
K6S2 100015Z AUTO 15010G18KT 130V200 4SM -RA BR OVC036 08/08 A2955 RMK AO2
K6S2 092355Z AUTO 15011G19KT 100V180 6SM -RA BR BKN038 BKN045 08/08 A2956 RMK AO2 P0001
K6S2 092335Z AUTO 14007G16KT 6SM -RA BR OVC038 07/07 A2957 RMK AO2
K6S2 092315Z AUTO 12008G15KT 070V150 9SM -RA OVC036 07/07 A2959 RMK AO2
K6S2 092255Z AUTO 14008G16KT 110V190 9SM -RA BKN036 07/07 A2961 RMK AO2 P0005
K6S2 092235Z AUTO VRB05G14KT 3SM -RA BR BKN033 BKN040 07/07 A2962 RMK AO2
K6S2 092215Z AUTO 14007G15KT 3SM -RA BR OVC032 07/07 A2965 RMK AO2
K6S2 092155Z AUTO VRB06G12KT 3SM -RA BR OVC032 07/07 A2967 RMK AO2 P0005
K6S2 092135Z AUTO VRB05G10KT 4SM -RA BR OVC032 06/06 A2969 RMK AO2
K6S2 092115Z AUTO 13008G18KT 090V160 3SM -RA BR BKN034 06/06 A2970 RMK AO2
K6S2 092055Z AUTO VRB04G14KT 3SM -RA BR SCT028 BKN034 06/06 A2972 RMK AO2 P0005
K6S2 092035Z AUTO VRB05G12KT 3SM -RA BR OVC031 06/06 A2974 RMK AO2
K6S2 092015Z AUTO VRB06G13KT 080V190 5SM -RA BR BKN030 BKN034 07/06 A2977 RMK AO2
K6S2 091955Z AUTO VRB06G13KT 7SM -RA SCT032 07/06 A2978 RMK AO2 P0002
K6S2 091935Z AUTO VRB05KT 8SM -RA SCT030 BKN035 BKN040 07/06 A2981 RMK AO2
K6S2 091915Z AUTO VRB05G17KT 10SM -RA BKN033 07/06 A2984 RMK AO2
K6S2 091855Z AUTO 13007G18KT 090V160 5SM -RA BR FEW025 BKN030 BKN038 06/06 A2985 RMK AO2 P0001
K6S2 091835Z AUTO VRB05G13KT 9SM -RA FEW023 SCT031 BKN040 07/07 A2987 RMK AO2
K6S2 091815Z AUTO 15007G13KT 120V180 8SM -RA BKN025 OVC030 07/07 A2989 RMK AO2
K6S2 091755Z AUTO 14007KT 110V170 8SM -RA BKN026 OVC030 07/07 A2990 RMK AO2 P0001
K6S2 091735Z AUTO VRB05G14KT 6SM -RA BR BKN029 BKN036 BKN044 06/06 A2991 RMK AO2
K6S2 091715Z AUTO 14007G13KT 8SM -RA SCT023 BKN031 BKN036 07/07 A2992 RMK AO2
K6S2 091655Z AUTO VRB05G12KT 9SM -RA SCT023 SCT028 BKN035 07/07 A2993 RMK AO2 P0001
K6S2 091635Z AUTO VRB06G14KT 3SM -RA BR FEW026 SCT035 BKN045 06/06 A2994 RMK AO2
K6S2 091615Z AUTO 15008G13KT 120V180 10SM SCT029 BKN039 OVC070 07/06 A2994 RMK AO2
K6S2 091555Z AUTO 15007G13KT 090V180 10SM SCT032 BKN065 OVC090 06/06 A2995 RMK AO2
K6S2 091535Z AUTO 15007KT 120V180 10SM FEW021 SCT039 BKN049 06/06 A2996 RMK AO2
K6S2 091515Z AUTO VRB05G11KT 10SM FEW020 BKN065 OVC075 06/06 A2997 RMK AO2
K6S2 091455Z AUTO VRB06KT 10SM FEW020 SCT035 OVC070 06/06 A2998 RMK AO2
K6S2 091435Z AUTO VRB06G12KT 10SM -RA FEW021 SCT031 BKN036 06/06 A2999 RMK AO2
K6S2 091415Z AUTO VRB05KT 10SM SCT022 BKN033 OVC065 06/06 A3000 RMK AO2
K6S2 091355Z AUTO VRB06G12KT 10SM BKN021 BKN026 OVC060 06/06 A3000 RMK AO2 P0001
K6S2 091335Z AUTO VRB05G10KT 10SM BKN021 BKN027 OVC055 06/06 A3000 RMK AO2
K6S2 091315Z AUTO VRB06KT 10SM -RA FEW010 BKN027 OVC070 06/06 A3000 RMK AO2
K6S2 091255Z AUTO VRB04G11KT 7SM -RA FEW005 SCT021 BKN029 06/06 A3001 RMK AO2
K6S2 091235Z AUTO VRB05KT 9SM -RA BKN024 BKN033 BKN043 06/06 A3001 RMK AO2
K6S2 091215Z AUTO VRB06KT 7SM -RA FEW004 BKN025 OVC050 05/05 A3001 RMK AO2
K6S2 091155Z AUTO 14007KT 10SM FEW017 SCT028 BKN036 06/06 A3002 RMK AO2
K6S2 091135Z AUTO VRB05G12KT 10SM -RA SCT019 BKN026 OVC041 06/06 A3003 RMK AO2
K6S2 091115Z AUTO VRB06G13KT 10SM FEW020 BKN026 OVC046 06/06 A3004 RMK AO2
K6S2 091055Z AUTO 14004KT 10SM FEW020 SCT029 BKN048 06/06 A3004 RMK AO2
K6S2 091035Z AUTO VRB05KT 10SM FEW019 BKN029 OVC055 06/06 A3005 RMK AO2
K6S2 091015Z AUTO 15004KT 10SM FEW016 SCT022 BKN029 05/05 A3005 RMK AO2
K6S2 090955Z AUTO VRB03KT 4SM RA BR SCT020 BKN033 OVC041 05/05 A3005 RMK AO2 P0002
K6S2 090935Z AUTO 13003KT 10SM SCT020 BKN034 OVC050 05/05 A3006 RMK AO2
K6S2 090915Z AUTO 15006G13KT 5SM -RA BR FEW017 BKN028 OVC050 06/06 A3006 RMK AO2
K6S2 090855Z AUTO VRB04KT 4SM -RA BR FEW008 SCT018 BKN026 06/06 A3007 RMK AO2 P0006
K6S2 090835Z AUTO VRB05KT 6SM -RA BR FEW009 SCT027 OVC033 06/06 A3007 RMK AO2
K6S2 090815Z AUTO 00000KT 8SM -RA FEW010 SCT028 BKN034 06/06 A3006 RMK AO2
K6S2 090755Z AUTO VRB03KT 10SM SCT031 BKN043 OVC075 05/05 A3007 RMK AO2
K6S2 090735Z AUTO 15005KT 10SM BKN032 BKN042 OVC060 05/05 A3007 RMK AO2
K6S2 090715Z AUTO VRB03KT 10SM BKN029 BKN035 OVC055 05/05 A3007 RMK AO2
K6S2 090655Z AUTO VRB04KT 10SM SCT030 BKN050 OVC060 05/05 A3007 RMK AO2
K6S2 090635Z AUTO 00000KT 10SM FEW003 SCT025 BKN029 05/05 A3007 RMK AO2
K6S2 090615Z AUTO 00000KT 10SM BKN025 OVC055 05/05 A3007 RMK AO2
K6S2 090555Z AUTO 00000KT 10SM BKN025 BKN030 OVC055 05/05 A3006 RMK AO2
K6S2 090535Z AUTO 00000KT 10SM UP SCT023 BKN029 OVC041 05/05 A3006 RMK AO2
K6S2 090515Z AUTO 00000KT 10SM SCT028 BKN042 OVC049 05/05 A3006 RMK AO2
K6S2 090455Z AUTO 00000KT 10SM -RA SCT042 BKN050 OVC085 05/05 A3005 RMK AO2
K6S2 090435Z AUTO 15004KT 10SM SCT035 BKN050 OVC055 05/05 A3005 RMK AO2
K6S2 090415Z AUTO 00000KT 10SM BKN036 BKN046 OVC060 05/05 A3005 RMK AO2
K6S2 090355Z AUTO VRB04KT 10SM FEW019 FEW024 OVC037 05/05 A3005 RMK AO2 P0003
K6S2 090335Z AUTO VRB04G11KT 10SM SCT019 SCT025 OVC037 05/05 A3005 RMK AO2
K6S2 090315Z AUTO VRB06G12KT 8SM -RA BKN019 OVC026 05/05 A3005 RMK AO2
K6S2 090255Z AUTO 19006G11KT 6SM -RA BR BKN026 BKN041 OVC055 06/06 A3005 RMK AO2 P0002
K6S2 090235Z AUTO VRB05G10KT 9SM -RA SCT029 BKN043 BKN055 05/05 A3004 RMK AO2
K6S2 090215Z AUTO 16007KT 130V200 7SM -RA FEW010 FEW019 BKN028 05/05 A3004 RMK AO2
K6S2 090155Z AUTO 00000G10KT 10SM -RA SCT010 BKN014 OVC029 05/05 A3004 RMK AO2 P0005
K6S2 090135Z AUTO VRB04KT 6SM -RA BR FEW008 BKN016 OVC024 05/05 A3004 RMK AO2
K6S2 090115Z AUTO 00000KT 4SM -RA BR BKN024 OVC035 06/06 A3005 RMK AO2
K6S2 090055Z AUTO VRB04KT 9SM -RA SCT019 BKN027 OVC041 06/06 A3004 RMK AO2
K6S2 090035Z AUTO VRB04KT 8SM -RA SCT019 BKN027 OVC035 06/06 A3004 RMK AO2
K6S2 090015Z AUTO 00000KT 10SM SCT026 BKN036 OVC046 06/06 A3004 RMK AO2
K6S2 082355Z AUTO 00000KT 10SM BKN028 BKN041 OVC049 06/06 A3004 RMK AO2
K6S2 082335Z AUTO 20004KT 10SM BKN028 BKN042 OVC070 06/06 A3003 RMK AO2
K6S2 082315Z AUTO 00000KT 10SM FEW009 SCT029 BKN038 06/06 A3003 RMK AO2
K6S2 082255Z AUTO 00000KT 10SM FEW010 OVC028 06/06 A3003 RMK AO2
K6S2 082235Z AUTO 00000KT 10SM FEW008 OVC028 06/06 A3002 RMK AO2
K6S2 082215Z AUTO 00000KT 10SM SCT028 BKN035 BKN090 06/06 A3001 RMK AO2
K6S2 082155Z AUTO 00000KT 10SM FEW026 SCT034 SCT042 06/06 A3000 RMK AO2
K6S2 082135Z AUTO VRB03KT 10SM FEW050 FEW085 06/06 A3000 RMK AO2
K6S2 082115Z AUTO 00000KT 10SM FEW038 SCT050 BKN060 06/06 A3001 RMK AO2
K6S2 082055Z AUTO 00000KT 06/06 A3001 RMK AO2
K6S2 082035Z AUTO 00000KT 06/06 A3002 RMK AO2
K6S2 082015Z AUTO 00000KT 10SM FEW043 FEW050 SCT080 06/06 A3000 RMK AO2
K6S2 081955Z AUTO VRB03KT 06/06 A3000 RMK AO2 P0002
K6S2 081935Z AUTO VRB03KT 10SM CLR 06/06 A3002 RMK AO2
K6S2 081915Z AUTO VRB04KT 5SM -RA BR FEW025 05/05 A3003 RMK AO2
K6S2 081855Z AUTO VRB05KT -RA 06/06 A3004 RMK AO2 P0014
K6S2 081835Z AUTO VRB04KT 2SM -RA BR FEW022 06/06 A3004 RMK AO2
K6S2 081815Z AUTO 00000KT 2SM RA BR BKN021 06/06 A3005 RMK AO2 VIS 1 1/4V3
K6S2 081755Z AUTO 00000KT 2SM RA BR BKN020 06/06 A3005 RMK AO2 P0012
K6S2 081735Z AUTO 00000KT 3SM -RA BR FEW018 SCT025 06/06 A3004 RMK AO2
K6S2 081715Z AUTO 00000KT 4SM -RA BR FEW014 SCT020 BKN026 07/07 A3004 RMK AO2
K6S2 081655Z AUTO 00000KT 4SM -RA BR FEW013 SCT018 BKN031 07/07 A3003 RMK AO2 P0006
K6S2 081635Z AUTO 00000KT 4SM -RA BR FEW010 SCT022 BKN033 07/07 A3002 RMK AO2
K6S2 081615Z AUTO 32005KT 5SM -RA BR FEW011 SCT021 BKN030 07/07 A3002 RMK AO2
K6S2 081555Z AUTO VRB03KT 5SM -RA BR SCT010 BKN021 OVC031 07/07 A3001 RMK AO2 P0014
K6S2 081535Z AUTO 31004KT 4SM -RA BR FEW008 BKN012 OVC020 08/08 A3001 RMK AO2
K6S2 081515Z AUTO 32007KT 4SM RA BR SCT007 BKN012 OVC019 08/08 A3000 RMK AO2
K6S2 081455Z AUTO 16007KT 3SM +RA BR BKN017 OVC023 08/08 A2999 RMK AO2 P0016
K6S2 081435Z AUTO VRB04G12KT 4SM RA BR FEW018 BKN025 OVC033 07/07 A2999 RMK AO2
K6S2 081415Z AUTO VRB06KT 6SM -RA BR FEW026 BKN033 OVC039 07/07 A2998 RMK AO2